sensor_id;sensor_type;location;lat;lon;timestamp;P1;durP1;ratioP1;P2;durP2;ratioP2
5349;SDS011;2697;42.144;24.794;2023-07-08T00:00:00;12.77;;;7.47;;
5349;SDS011;2697;42.144;24.794;2023-07-08T00:02:25;12.80;;;7.70;;
5349;SDS011;2697;42.144;24.794;2023-07-08T00:04:51;14.50;;;7.13;;
5349;SDS011;2697;42.144;24.794;2023-07-08T00:07:16;15.97;;;7.27;;
5349;SDS011;2697;42.144;24.794;2023-07-08T00:09:44;11.10;;;7.23;;
5349;SDS011;2697;42.144;24.794;2023-07-08T00:12:10;11.47;;;8.10;;
5349;SDS011;2697;42.144;24.794;2023-07-08T00:14:36;12.37;;;7.73;;
5349;SDS011;2697;42.144;24.794;2023-07-08T00:17:01;17.27;;;8.37;;
5349;SDS011;2697;42.144;24.794;2023-07-08T00:19:27;13.83;;;8.73;;
5349;SDS011;2697;42.144;24.794;2023-07-08T00:21:52;13.53;;;7.67;;
5349;SDS011;2697;42.144;24.794;2023-07-08T00:24:17;14.93;;;8.07;;
5349;SDS011;2697;42.144;24.794;2023-07-08T00:26:43;11.37;;;7.33;;
5349;SDS011;2697;42.144;24.794;2023-07-08T00:29:08;11.20;;;7.07;;
5349;SDS011;2697;42.144;24.794;2023-07-08T00:31:35;12.43;;;8.03;;
5349;SDS011;2697;42.144;24.794;2023-07-08T00:34:00;23.87;;;6.70;;
5349;SDS011;2697;42.144;24.794;2023-07-08T00:36:28;11.77;;;8.47;;
5349;SDS011;2697;42.144;24.794;2023-07-08T00:38:54;10.27;;;7.80;;
5349;SDS011;2697;42.144;24.794;2023-07-08T00:44:00;14.10;;;8.17;;
5349;SDS011;2697;42.144;24.794;2023-07-08T00:51:32;12.60;;;6.57;;
5349;SDS011;2697;42.144;24.794;2023-07-08T00:54:05;12.90;;;8.30;;
5349;SDS011;2697;42.144;24.794;2023-07-08T00:56:38;11.47;;;6.30;;
5349;SDS011;2697;42.144;24.794;2023-07-08T00:59:10;12.03;;;7.07;;
5349;SDS011;2697;42.144;24.794;2023-07-08T01:01:48;14.73;;;7.17;;
5349;SDS011;2697;42.144;24.794;2023-07-08T01:04:18;12.83;;;8.37;;
5349;SDS011;2697;42.144;24.794;2023-07-08T01:06:49;20.23;;;7.53;;
5349;SDS011;2697;42.144;24.794;2023-07-08T01:09:22;14.33;;;6.70;;
5349;SDS011;2697;42.144;24.794;2023-07-08T01:11:54;11.47;;;6.53;;
5349;SDS011;2697;42.144;24.794;2023-07-08T01:14:23;10.80;;;7.27;;
5349;SDS011;2697;42.144;24.794;2023-07-08T01:16:53;11.60;;;6.40;;
5349;SDS011;2697;42.144;24.794;2023-07-08T01:19:19;8.27;;;5.90;;
5349;SDS011;2697;42.144;24.794;2023-07-08T01:24:22;27.30;;;6.93;;
5349;SDS011;2697;42.144;24.794;2023-07-08T01:26:47;23.00;;;6.70;;
5349;SDS011;2697;42.144;24.794;2023-07-08T01:29:13;13.37;;;6.70;;
5349;SDS011;2697;42.144;24.794;2023-07-08T01:31:38;14.90;;;7.03;;
5349;SDS011;2697;42.144;24.794;2023-07-08T01:34:05;22.33;;;7.53;;
5349;SDS011;2697;42.144;24.794;2023-07-08T01:36:37;12.80;;;7.07;;
5349;SDS011;2697;42.144;24.794;2023-07-08T01:39:09;9.57;;;7.07;;
5349;SDS011;2697;42.144;24.794;2023-07-08T01:41:39;19.07;;;8.13;;
5349;SDS011;2697;42.144;24.794;2023-07-08T01:44:05;22.70;;;7.83;;
5349;SDS011;2697;42.144;24.794;2023-07-08T01:46:30;11.07;;;7.27;;
5349;SDS011;2697;42.144;24.794;2023-07-08T01:48:57;17.50;;;6.53;;
5349;SDS011;2697;42.144;24.794;2023-07-08T01:51:25;15.10;;;8.63;;
5349;SDS011;2697;42.144;24.794;2023-07-08T01:53:51;13.40;;;8.13;;
5349;SDS011;2697;42.144;24.794;2023-07-08T01:56:17;12.90;;;7.10;;
5349;SDS011;2697;42.144;24.794;2023-07-08T01:58:43;21.63;;;7.93;;
5349;SDS011;2697;42.144;24.794;2023-07-08T02:01:08;18.50;;;7.10;;
5349;SDS011;2697;42.144;24.794;2023-07-08T02:03:35;12.30;;;7.40;;
5349;SDS011;2697;42.144;24.794;2023-07-08T02:06:01;13.37;;;8.00;;
5349;SDS011;2697;42.144;24.794;2023-07-08T02:08:26;10.60;;;7.23;;
5349;SDS011;2697;42.144;24.794;2023-07-08T02:10:56;18.20;;;8.70;;
5349;SDS011;2697;42.144;24.794;2023-07-08T02:13:22;11.50;;;8.47;;
5349;SDS011;2697;42.144;24.794;2023-07-08T02:15:49;12.37;;;7.80;;
5349;SDS011;2697;42.144;24.794;2023-07-08T02:18:15;28.37;;;7.63;;
5349;SDS011;2697;42.144;24.794;2023-07-08T02:20:40;11.03;;;7.53;;
5349;SDS011;2697;42.144;24.794;2023-07-08T02:23:07;11.87;;;8.47;;
5349;SDS011;2697;42.144;24.794;2023-07-08T02:25:32;15.77;;;7.60;;
5349;SDS011;2697;42.144;24.794;2023-07-08T02:27:58;10.37;;;7.37;;
5349;SDS011;2697;42.144;24.794;2023-07-08T02:30:23;14.70;;;9.40;;
5349;SDS011;2697;42.144;24.794;2023-07-08T02:32:49;24.20;;;8.80;;
5349;SDS011;2697;42.144;24.794;2023-07-08T02:35:22;15.43;;;9.03;;
5349;SDS011;2697;42.144;24.794;2023-07-08T02:37:51;24.83;;;9.20;;
5349;SDS011;2697;42.144;24.794;2023-07-08T02:40:17;13.50;;;9.17;;
5349;SDS011;2697;42.144;24.794;2023-07-08T02:42:42;14.40;;;9.97;;
5349;SDS011;2697;42.144;24.794;2023-07-08T02:45:10;13.50;;;9.40;;
5349;SDS011;2697;42.144;24.794;2023-07-08T02:47:36;14.50;;;8.80;;
5349;SDS011;2697;42.144;24.794;2023-07-08T02:50:01;15.80;;;9.67;;
5349;SDS011;2697;42.144;24.794;2023-07-08T02:52:27;13.60;;;10.07;;
5349;SDS011;2697;42.144;24.794;2023-07-08T02:54:52;23.03;;;11.13;;
5349;SDS011;2697;42.144;24.794;2023-07-08T02:57:17;19.00;;;10.93;;
5349;SDS011;2697;42.144;24.794;2023-07-08T02:59:43;25.90;;;10.07;;
5349;SDS011;2697;42.144;24.794;2023-07-08T03:02:08;18.20;;;11.27;;
5349;SDS011;2697;42.144;24.794;2023-07-08T03:04:33;20.40;;;10.67;;
5349;SDS011;2697;42.144;24.794;2023-07-08T03:07:04;19.03;;;11.13;;
5349;SDS011;2697;42.144;24.794;2023-07-08T03:09:29;18.77;;;12.30;;
5349;SDS011;2697;42.144;24.794;2023-07-08T03:11:57;18.27;;;11.10;;
5349;SDS011;2697;42.144;24.794;2023-07-08T03:14:22;17.77;;;12.17;;
5349;SDS011;2697;42.144;24.794;2023-07-08T03:16:48;21.93;;;12.90;;
5349;SDS011;2697;42.144;24.794;2023-07-08T03:19:13;27.30;;;14.50;;
5349;SDS011;2697;42.144;24.794;2023-07-08T03:21:40;22.13;;;12.80;;
5349;SDS011;2697;42.144;24.794;2023-07-08T03:24:08;28.47;;;12.40;;
5349;SDS011;2697;42.144;24.794;2023-07-08T03:26:36;20.07;;;13.40;;
5349;SDS011;2697;42.144;24.794;2023-07-08T03:29:01;22.70;;;11.83;;
5349;SDS011;2697;42.144;24.794;2023-07-08T03:31:27;23.53;;;11.27;;
5349;SDS011;2697;42.144;24.794;2023-07-08T03:33:53;28.43;;;12.40;;
5349;SDS011;2697;42.144;24.794;2023-07-08T03:36:18;19.70;;;12.07;;
5349;SDS011;2697;42.144;24.794;2023-07-08T03:38:54;20.53;;;13.20;;
5349;SDS011;2697;42.144;24.794;2023-07-08T03:41:21;22.00;;;11.97;;
5349;SDS011;2697;42.144;24.794;2023-07-08T03:43:47;15.20;;;10.30;;
5349;SDS011;2697;42.144;24.794;2023-07-08T03:46:13;18.87;;;12.90;;
5349;SDS011;2697;42.144;24.794;2023-07-08T03:48:40;24.27;;;14.23;;
5349;SDS011;2697;42.144;24.794;2023-07-08T03:51:39;18.63;;;13.60;;
5349;SDS011;2697;42.144;24.794;2023-07-08T03:53:59;20.90;;;13.33;;
5349;SDS011;2697;42.144;24.794;2023-07-08T03:56:25;20.50;;;14.97;;
5349;SDS011;2697;42.144;24.794;2023-07-08T03:58:50;17.10;;;11.90;;
5349;SDS011;2697;42.144;24.794;2023-07-08T04:01:17;22.53;;;11.60;;
5349;SDS011;2697;42.144;24.794;2023-07-08T04:03:45;22.63;;;14.23;;
5349;SDS011;2697;42.144;24.794;2023-07-08T04:06:12;23.73;;;15.87;;
5349;SDS011;2697;42.144;24.794;2023-07-08T04:08:38;22.00;;;14.17;;
5349;SDS011;2697;42.144;24.794;2023-07-08T04:11:03;25.70;;;12.73;;
5349;SDS011;2697;42.144;24.794;2023-07-08T04:13:29;20.87;;;12.80;;
5349;SDS011;2697;42.144;24.794;2023-07-08T04:15:55;19.87;;;14.00;;
5349;SDS011;2697;42.144;24.794;2023-07-08T04:18:24;15.33;;;13.03;;
5349;SDS011;2697;42.144;24.794;2023-07-08T04:20:49;16.77;;;13.37;;
5349;SDS011;2697;42.144;24.794;2023-07-08T04:23:20;23.43;;;15.07;;
5349;SDS011;2697;42.144;24.794;2023-07-08T04:25:50;17.53;;;12.87;;
5349;SDS011;2697;42.144;24.794;2023-07-08T04:28:17;20.47;;;12.87;;
5349;SDS011;2697;42.144;24.794;2023-07-08T04:30:42;19.23;;;12.70;;
5349;SDS011;2697;42.144;24.794;2023-07-08T04:33:08;25.83;;;11.23;;
5349;SDS011;2697;42.144;24.794;2023-07-08T04:35:38;54.10;;;12.60;;
5349;SDS011;2697;42.144;24.794;2023-07-08T04:38:05;15.00;;;10.30;;
5349;SDS011;2697;42.144;24.794;2023-07-08T04:40:35;17.13;;;10.97;;
5349;SDS011;2697;42.144;24.794;2023-07-08T04:43:08;14.80;;;10.70;;
5349;SDS011;2697;42.144;24.794;2023-07-08T04:45:36;16.50;;;11.60;;
5349;SDS011;2697;42.144;24.794;2023-07-08T04:48:02;26.40;;;10.93;;
5349;SDS011;2697;42.144;24.794;2023-07-08T04:50:33;20.77;;;11.60;;
5349;SDS011;2697;42.144;24.794;2023-07-08T04:52:59;15.57;;;10.87;;
5349;SDS011;2697;42.144;24.794;2023-07-08T04:55:25;12.90;;;10.47;;
5349;SDS011;2697;42.144;24.794;2023-07-08T04:57:50;11.97;;;9.80;;
5349;SDS011;2697;42.144;24.794;2023-07-08T05:00:16;19.07;;;10.60;;
5349;SDS011;2697;42.144;24.794;2023-07-08T05:02:44;17.53;;;8.77;;
5349;SDS011;2697;42.144;24.794;2023-07-08T05:05:10;16.07;;;10.30;;
5349;SDS011;2697;42.144;24.794;2023-07-08T05:07:35;14.00;;;10.50;;
5349;SDS011;2697;42.144;24.794;2023-07-08T05:10:01;17.17;;;9.00;;
5349;SDS011;2697;42.144;24.794;2023-07-08T05:12:26;13.97;;;9.30;;
5349;SDS011;2697;42.144;24.794;2023-07-08T05:14:52;25.47;;;10.13;;
5349;SDS011;2697;42.144;24.794;2023-07-08T05:17:17;15.57;;;9.40;;
5349;SDS011;2697;42.144;24.794;2023-07-08T05:19:42;12.80;;;8.23;;
5349;SDS011;2697;42.144;24.794;2023-07-08T05:22:10;15.20;;;9.43;;
5349;SDS011;2697;42.144;24.794;2023-07-08T05:24:35;12.05;;;8.13;;
5349;SDS011;2697;42.144;24.794;2023-07-08T05:27:02;29.47;;;9.80;;
5349;SDS011;2697;42.144;24.794;2023-07-08T05:29:28;23.67;;;9.13;;
5349;SDS011;2697;42.144;24.794;2023-07-08T05:31:53;10.93;;;8.73;;
5349;SDS011;2697;42.144;24.794;2023-07-08T05:34:19;21.00;;;9.93;;
5349;SDS011;2697;42.144;24.794;2023-07-08T05:36:44;11.18;;;8.80;;
5349;SDS011;2697;42.144;24.794;2023-07-08T05:39:10;11.55;;;9.00;;
5349;SDS011;2697;42.144;24.794;2023-07-08T05:41:35;14.13;;;8.97;;
5349;SDS011;2697;42.144;24.794;2023-07-08T05:44:01;13.27;;;9.73;;
5349;SDS011;2697;42.144;24.794;2023-07-08T05:46:26;11.73;;;8.77;;
5349;SDS011;2697;42.144;24.794;2023-07-08T05:48:52;11.43;;;9.30;;
5349;SDS011;2697;42.144;24.794;2023-07-08T05:51:17;10.30;;;7.63;;
5349;SDS011;2697;42.144;24.794;2023-07-08T05:53:43;12.40;;;8.60;;
5349;SDS011;2697;42.144;24.794;2023-07-08T05:56:08;18.23;;;7.80;;
5349;SDS011;2697;42.144;24.794;2023-07-08T05:58:33;13.30;;;8.90;;
5349;SDS011;2697;42.144;24.794;2023-07-08T06:00:59;12.25;;;8.25;;
5349;SDS011;2697;42.144;24.794;2023-07-08T06:03:24;9.10;;;6.47;;
5349;SDS011;2697;42.144;24.794;2023-07-08T06:05:50;10.15;;;7.93;;
5349;SDS011;2697;42.144;24.794;2023-07-08T06:08:16;13.13;;;8.90;;
5349;SDS011;2697;42.144;24.794;2023-07-08T06:10:42;10.07;;;7.93;;
5349;SDS011;2697;42.144;24.794;2023-07-08T06:13:11;8.18;;;7.38;;
5349;SDS011;2697;42.144;24.794;2023-07-08T06:15:37;11.57;;;8.15;;
5349;SDS011;2697;42.144;24.794;2023-07-08T06:18:03;12.40;;;7.47;;
5349;SDS011;2697;42.144;24.794;2023-07-08T06:20:29;16.30;;;7.13;;
5349;SDS011;2697;42.144;24.794;2023-07-08T06:22:55;33.80;;;8.48;;
5349;SDS011;2697;42.144;24.794;2023-07-08T06:25:20;9.82;;;7.10;;
5349;SDS011;2697;42.144;24.794;2023-07-08T06:27:46;13.65;;;7.93;;
5349;SDS011;2697;42.144;24.794;2023-07-08T06:30:11;8.63;;;7.20;;
5349;SDS011;2697;42.144;24.794;2023-07-08T06:32:36;10.18;;;6.72;;
5349;SDS011;2697;42.144;24.794;2023-07-08T06:35:02;9.95;;;8.35;;
5349;SDS011;2697;42.144;24.794;2023-07-08T06:37:28;13.73;;;7.18;;
5349;SDS011;2697;42.144;24.794;2023-07-08T06:39:54;12.13;;;7.85;;
5349;SDS011;2697;42.144;24.794;2023-07-08T06:42:19;12.50;;;7.10;;
5349;SDS011;2697;42.144;24.794;2023-07-08T06:44:44;6.05;;;5.32;;
5349;SDS011;2697;42.144;24.794;2023-07-08T06:47:16;6.05;;;5.35;;
5349;SDS011;2697;42.144;24.794;2023-07-08T06:49:42;6.57;;;4.43;;
5349;SDS011;2697;42.144;24.794;2023-07-08T06:52:08;5.40;;;4.18;;
5349;SDS011;2697;42.144;24.794;2023-07-08T06:54:33;12.43;;;5.20;;
5349;SDS011;2697;42.144;24.794;2023-07-08T06:56:59;7.97;;;5.47;;
5349;SDS011;2697;42.144;24.794;2023-07-08T06:59:24;10.65;;;4.50;;
5349;SDS011;2697;42.144;24.794;2023-07-08T07:01:50;16.73;;;5.00;;
5349;SDS011;2697;42.144;24.794;2023-07-08T07:04:15;4.57;;;4.13;;
5349;SDS011;2697;42.144;24.794;2023-07-08T07:06:40;4.18;;;3.33;;
5349;SDS011;2697;42.144;24.794;2023-07-08T07:09:06;5.97;;;4.60;;
5349;SDS011;2697;42.144;24.794;2023-07-08T07:11:31;7.63;;;3.97;;
5349;SDS011;2697;42.144;24.794;2023-07-08T07:13:56;8.88;;;3.80;;
5349;SDS011;2697;42.144;24.794;2023-07-08T07:16:22;12.55;;;4.93;;
5349;SDS011;2697;42.144;24.794;2023-07-08T07:18:48;5.45;;;3.78;;
5349;SDS011;2697;42.144;24.794;2023-07-08T07:21:14;17.70;;;4.20;;
5349;SDS011;2697;42.144;24.794;2023-07-08T07:23:40;8.68;;;4.13;;
5349;SDS011;2697;42.144;24.794;2023-07-08T07:26:05;8.25;;;4.45;;
5349;SDS011;2697;42.144;24.794;2023-07-08T07:28:32;5.70;;;4.03;;
5349;SDS011;2697;42.144;24.794;2023-07-08T07:30:58;5.95;;;4.18;;
5349;SDS011;2697;42.144;24.794;2023-07-08T07:33:24;6.00;;;4.68;;
5349;SDS011;2697;42.144;24.794;2023-07-08T07:35:50;5.47;;;4.20;;
5349;SDS011;2697;42.144;24.794;2023-07-08T07:38:16;10.03;;;4.97;;
5349;SDS011;2697;42.144;24.794;2023-07-08T07:40:41;14.90;;;5.53;;
5349;SDS011;2697;42.144;24.794;2023-07-08T07:43:07;6.10;;;4.93;;
5349;SDS011;2697;42.144;24.794;2023-07-08T07:45:33;4.40;;;4.00;;
5349;SDS011;2697;42.144;24.794;2023-07-08T07:47:59;7.32;;;4.65;;
5349;SDS011;2697;42.144;24.794;2023-07-08T07:50:24;12.38;;;3.95;;
5349;SDS011;2697;42.144;24.794;2023-07-08T07:52:49;10.15;;;4.38;;
5349;SDS011;2697;42.144;24.794;2023-07-08T07:55:15;11.98;;;5.13;;
5349;SDS011;2697;42.144;24.794;2023-07-08T07:57:40;8.43;;;4.35;;
5349;SDS011;2697;42.144;24.794;2023-07-08T08:00:07;13.80;;;3.80;;
5349;SDS011;2697;42.144;24.794;2023-07-08T08:02:33;9.03;;;4.77;;
5349;SDS011;2697;42.144;24.794;2023-07-08T08:04:59;7.27;;;4.87;;
5349;SDS011;2697;42.144;24.794;2023-07-08T08:07:25;7.93;;;4.47;;
5349;SDS011;2697;42.144;24.794;2023-07-08T08:09:50;10.17;;;4.53;;
5349;SDS011;2697;42.144;24.794;2023-07-08T08:12:15;7.13;;;3.70;;
5349;SDS011;2697;42.144;24.794;2023-07-08T08:14:41;13.77;;;4.40;;
5349;SDS011;2697;42.144;24.794;2023-07-08T08:17:06;7.63;;;4.40;;
5349;SDS011;2697;42.144;24.794;2023-07-08T08:19:31;4.10;;;3.73;;
5349;SDS011;2697;42.144;24.794;2023-07-08T08:21:57;10.33;;;3.33;;
5349;SDS011;2697;42.144;24.794;2023-07-08T08:24:23;15.33;;;4.13;;
5349;SDS011;2697;42.144;24.794;2023-07-08T08:26:48;12.27;;;4.60;;
5349;SDS011;2697;42.144;24.794;2023-07-08T08:29:14;6.60;;;4.20;;
5349;SDS011;2697;42.144;24.794;2023-07-08T08:31:39;7.47;;;3.90;;
5349;SDS011;2697;42.144;24.794;2023-07-08T08:34:05;7.03;;;3.00;;
5349;SDS011;2697;42.144;24.794;2023-07-08T08:36:31;7.83;;;4.33;;
5349;SDS011;2697;42.144;24.794;2023-07-08T08:38:56;13.23;;;4.80;;
5349;SDS011;2697;42.144;24.794;2023-07-08T08:41:31;8.10;;;5.47;;
5349;SDS011;2697;42.144;24.794;2023-07-08T08:43:59;10.17;;;4.90;;
5349;SDS011;2697;42.144;24.794;2023-07-08T08:46:41;8.47;;;4.73;;
5349;SDS011;2697;42.144;24.794;2023-07-08T08:49:39;5.80;;;3.43;;
5349;SDS011;2697;42.144;24.794;2023-07-08T08:52:09;4.37;;;3.10;;
5349;SDS011;2697;42.144;24.794;2023-07-08T08:54:35;6.83;;;3.50;;
5349;SDS011;2697;42.144;24.794;2023-07-08T09:00:24;16.67;;;3.90;;
5349;SDS011;2697;42.144;24.794;2023-07-08T09:05:43;9.50;;;3.80;;
5349;SDS011;2697;42.144;24.794;2023-07-08T09:08:12;18.33;;;3.90;;
5349;SDS011;2697;42.144;24.794;2023-07-08T09:13:35;4.83;;;3.37;;
5349;SDS011;2697;42.144;24.794;2023-07-08T09:16:04;8.67;;;3.67;;
5349;SDS011;2697;42.144;24.794;2023-07-08T09:18:39;5.80;;;3.50;;
5349;SDS011;2697;42.144;24.794;2023-07-08T09:21:19;29.60;;;4.70;;
5349;SDS011;2697;42.144;24.794;2023-07-08T09:23:48;5.70;;;3.47;;
5349;SDS011;2697;42.144;24.794;2023-07-08T09:26:18;15.47;;;3.37;;
5349;SDS011;2697;42.144;24.794;2023-07-08T09:28:46;8.53;;;3.07;;
5349;SDS011;2697;42.144;24.794;2023-07-08T09:31:22;4.13;;;3.07;;
5349;SDS011;2697;42.144;24.794;2023-07-08T09:34:15;4.70;;;3.43;;
5349;SDS011;2697;42.144;24.794;2023-07-08T09:36:41;6.63;;;3.93;;
5349;SDS011;2697;42.144;24.794;2023-07-08T09:39:15;5.07;;;3.03;;
5349;SDS011;2697;42.144;24.794;2023-07-08T09:41:46;3.90;;;2.70;;
5349;SDS011;2697;42.144;24.794;2023-07-08T09:46:43;3.43;;;2.87;;
5349;SDS011;2697;42.144;24.794;2023-07-08T09:49:20;3.97;;;3.40;;
5349;SDS011;2697;42.144;24.794;2023-07-08T09:51:53;3.17;;;2.87;;
5349;SDS011;2697;42.144;24.794;2023-07-08T09:54:23;4.13;;;3.40;;
5349;SDS011;2697;42.144;24.794;2023-07-08T09:59:21;5.40;;;3.27;;
5349;SDS011;2697;42.144;24.794;2023-07-08T10:01:52;5.57;;;2.80;;
5349;SDS011;2697;42.144;24.794;2023-07-08T10:04:19;5.30;;;3.00;;
5349;SDS011;2697;42.144;24.794;2023-07-08T10:06:44;10.97;;;3.40;;
5349;SDS011;2697;42.144;24.794;2023-07-08T10:09:14;8.40;;;3.20;;
5349;SDS011;2697;42.144;24.794;2023-07-08T10:11:50;6.63;;;3.60;;
5349;SDS011;2697;42.144;24.794;2023-07-08T10:14:39;4.93;;;3.20;;
5349;SDS011;2697;42.144;24.794;2023-07-08T10:17:13;9.10;;;2.87;;
5349;SDS011;2697;42.144;24.794;2023-07-08T10:19:41;5.00;;;2.53;;
5349;SDS011;2697;42.144;24.794;2023-07-08T10:30:25;2.93;;;2.63;;
5349;SDS011;2697;42.144;24.794;2023-07-08T10:38:41;6.43;;;3.47;;
5349;SDS011;2697;42.144;24.794;2023-07-08T10:43:59;3.03;;;2.60;;
5349;SDS011;2697;42.144;24.794;2023-07-08T10:52:23;3.25;;;2.55;;
5349;SDS011;2697;42.144;24.794;2023-07-08T10:55:07;3.70;;;3.40;;
5349;SDS011;2697;42.144;24.794;2023-07-08T11:06:06;4.88;;;2.53;;
5349;SDS011;2697;42.144;24.794;2023-07-08T11:08:56;5.80;;;2.97;;
5349;SDS011;2697;42.144;24.794;2023-07-08T11:14:17;4.00;;;2.80;;
5349;SDS011;2697;42.144;24.794;2023-07-08T11:19:57;3.67;;;2.70;;
5349;SDS011;2697;42.144;24.794;2023-07-08T11:22:28;4.20;;;2.23;;
5349;SDS011;2697;42.144;24.794;2023-07-08T11:24:56;5.53;;;3.40;;
5349;SDS011;2697;42.144;24.794;2023-07-08T11:29:55;4.53;;;2.70;;
5349;SDS011;2697;42.144;24.794;2023-07-08T11:32:25;4.40;;;3.25;;
5349;SDS011;2697;42.144;24.794;2023-07-08T11:34:52;3.30;;;3.00;;
5349;SDS011;2697;42.144;24.794;2023-07-08T11:37:20;3.97;;;3.00;;
5349;SDS011;2697;42.144;24.794;2023-07-08T11:39:52;7.63;;;3.80;;
5349;SDS011;2697;42.144;24.794;2023-07-08T11:44:51;8.05;;;3.75;;
5349;SDS011;2697;42.144;24.794;2023-07-08T11:47:25;5.85;;;2.92;;
5349;SDS011;2697;42.144;24.794;2023-07-08T11:50:00;3.08;;;2.78;;
5349;SDS011;2697;42.144;24.794;2023-07-08T11:52:25;5.10;;;3.25;;
5349;SDS011;2697;42.144;24.794;2023-07-08T11:55:02;5.30;;;3.78;;
5349;SDS011;2697;42.144;24.794;2023-07-08T11:57:37;4.55;;;3.47;;
5349;SDS011;2697;42.144;24.794;2023-07-08T12:00:13;8.80;;;2.42;;
5349;SDS011;2697;42.144;24.794;2023-07-08T12:02:51;9.88;;;3.05;;
5349;SDS011;2697;42.144;24.794;2023-07-08T12:05:34;5.10;;;2.70;;
5349;SDS011;2697;42.144;24.794;2023-07-08T12:08:02;4.97;;;4.53;;
5349;SDS011;2697;42.144;24.794;2023-07-08T12:10:41;3.13;;;2.80;;
5349;SDS011;2697;42.144;24.794;2023-07-08T12:13:15;7.97;;;3.67;;
5349;SDS011;2697;42.144;24.794;2023-07-08T12:15:43;25.05;;;2.92;;
5349;SDS011;2697;42.144;24.794;2023-07-08T12:20:47;5.32;;;2.95;;
5349;SDS011;2697;42.144;24.794;2023-07-08T12:23:19;11.10;;;2.95;;
5349;SDS011;2697;42.144;24.794;2023-07-08T12:25:46;12.90;;;2.75;;
5349;SDS011;2697;42.144;24.794;2023-07-08T12:28:12;5.43;;;3.13;;
5349;SDS011;2697;42.144;24.794;2023-07-08T12:30:38;3.22;;;2.50;;
5349;SDS011;2697;42.144;24.794;2023-07-08T12:33:08;3.00;;;2.53;;
5349;SDS011;2697;42.144;24.794;2023-07-08T12:35:43;5.03;;;3.03;;
5349;SDS011;2697;42.144;24.794;2023-07-08T12:40:41;6.10;;;2.83;;
5349;SDS011;2697;42.144;24.794;2023-07-08T12:43:08;5.37;;;2.97;;
5349;SDS011;2697;42.144;24.794;2023-07-08T12:45:35;2.40;;;2.20;;
5349;SDS011;2697;42.144;24.794;2023-07-08T12:48:01;3.77;;;2.20;;
5349;SDS011;2697;42.144;24.794;2023-07-08T12:50:27;4.50;;;2.37;;
5349;SDS011;2697;42.144;24.794;2023-07-08T12:52:53;3.20;;;2.07;;
5349;SDS011;2697;42.144;24.794;2023-07-08T12:55:18;7.77;;;2.67;;
5349;SDS011;2697;42.144;24.794;2023-07-08T12:57:45;3.30;;;2.33;;
5349;SDS011;2697;42.144;24.794;2023-07-08T13:00:24;16.40;;;4.17;;
5349;SDS011;2697;42.144;24.794;2023-07-08T13:02:56;10.80;;;2.70;;
5349;SDS011;2697;42.144;24.794;2023-07-08T13:05:38;7.77;;;2.70;;
5349;SDS011;2697;42.144;24.794;2023-07-08T13:08:05;5.47;;;2.33;;
5349;SDS011;2697;42.144;24.794;2023-07-08T13:10:42;6.70;;;2.20;;
5349;SDS011;2697;42.144;24.794;2023-07-08T13:13:11;10.87;;;2.53;;
5349;SDS011;2697;42.144;24.794;2023-07-08T13:15:40;6.53;;;2.57;;
5349;SDS011;2697;42.144;24.794;2023-07-08T13:18:21;5.90;;;2.40;;
5349;SDS011;2697;42.144;24.794;2023-07-08T13:20:55;13.23;;;3.07;;
5349;SDS011;2697;42.144;24.794;2023-07-08T13:23:21;12.10;;;3.23;;
5349;SDS011;2697;42.144;24.794;2023-07-08T13:25:48;3.97;;;2.03;;
5349;SDS011;2697;42.144;24.794;2023-07-08T13:30:49;27.30;;;4.40;;
5349;SDS011;2697;42.144;24.794;2023-07-08T13:33:23;6.33;;;2.57;;
5349;SDS011;2697;42.144;24.794;2023-07-08T13:35:49;12.83;;;2.67;;
5349;SDS011;2697;42.144;24.794;2023-07-08T13:38:17;7.60;;;3.13;;
5349;SDS011;2697;42.144;24.794;2023-07-08T13:40:45;21.03;;;3.73;;
5349;SDS011;2697;42.144;24.794;2023-07-08T13:43:13;9.30;;;2.97;;
5349;SDS011;2697;42.144;24.794;2023-07-08T13:45:42;5.97;;;3.00;;
5349;SDS011;2697;42.144;24.794;2023-07-08T13:48:14;9.00;;;2.60;;
5349;SDS011;2697;42.144;24.794;2023-07-08T13:50:47;15.00;;;2.30;;
5349;SDS011;2697;42.144;24.794;2023-07-08T13:53:22;3.47;;;2.40;;
5349;SDS011;2697;42.144;24.794;2023-07-08T13:55:56;5.60;;;2.87;;
5349;SDS011;2697;42.144;24.794;2023-07-08T13:58:25;8.83;;;2.80;;
5349;SDS011;2697;42.144;24.794;2023-07-08T14:00:53;6.83;;;2.70;;
5349;SDS011;2697;42.144;24.794;2023-07-08T14:03:18;5.63;;;1.70;;
5349;SDS011;2697;42.144;24.794;2023-07-08T14:05:45;5.13;;;2.70;;
5349;SDS011;2697;42.144;24.794;2023-07-08T14:08:14;4.47;;;2.77;;
5349;SDS011;2697;42.144;24.794;2023-07-08T14:10:41;2.70;;;2.00;;
5349;SDS011;2697;42.144;24.794;2023-07-08T14:13:07;5.03;;;2.17;;
5349;SDS011;2697;42.144;24.794;2023-07-08T14:15:33;14.00;;;2.57;;
5349;SDS011;2697;42.144;24.794;2023-07-08T14:18:01;7.80;;;4.53;;
5349;SDS011;2697;42.144;24.794;2023-07-08T14:20:26;5.80;;;4.10;;
5349;SDS011;2697;42.144;24.794;2023-07-08T14:22:54;2.30;;;1.90;;
5349;SDS011;2697;42.144;24.794;2023-07-08T14:25:20;9.30;;;3.23;;
5349;SDS011;2697;42.144;24.794;2023-07-08T14:27:46;2.77;;;2.13;;
5349;SDS011;2697;42.144;24.794;2023-07-08T14:30:11;4.93;;;2.40;;
5349;SDS011;2697;42.144;24.794;2023-07-08T14:32:38;6.10;;;4.33;;
5349;SDS011;2697;42.144;24.794;2023-07-08T14:35:12;4.27;;;2.83;;
5349;SDS011;2697;42.144;24.794;2023-07-08T14:37:39;3.50;;;2.83;;
5349;SDS011;2697;42.144;24.794;2023-07-08T14:42:56;5.27;;;2.87;;
5349;SDS011;2697;42.144;24.794;2023-07-08T14:45:28;4.90;;;3.53;;
5349;SDS011;2697;42.144;24.794;2023-07-08T14:47:57;5.40;;;3.50;;
5349;SDS011;2697;42.144;24.794;2023-07-08T14:50:22;10.40;;;3.13;;
5349;SDS011;2697;42.144;24.794;2023-07-08T14:52:48;5.37;;;2.90;;
5349;SDS011;2697;42.144;24.794;2023-07-08T14:55:13;3.90;;;2.63;;
5349;SDS011;2697;42.144;24.794;2023-07-08T14:57:43;4.17;;;3.23;;
5349;SDS011;2697;42.144;24.794;2023-07-08T15:00:12;3.80;;;2.83;;
5349;SDS011;2697;42.144;24.794;2023-07-08T15:02:40;9.10;;;4.20;;
5349;SDS011;2697;42.144;24.794;2023-07-08T15:05:11;6.93;;;3.07;;
5349;SDS011;2697;42.144;24.794;2023-07-08T15:07:39;10.43;;;3.30;;
5349;SDS011;2697;42.144;24.794;2023-07-08T15:10:05;6.93;;;3.70;;
5349;SDS011;2697;42.144;24.794;2023-07-08T15:12:32;8.80;;;3.40;;
5349;SDS011;2697;42.144;24.794;2023-07-08T15:14:57;8.50;;;3.33;;
5349;SDS011;2697;42.144;24.794;2023-07-08T15:17:23;4.07;;;2.87;;
5349;SDS011;2697;42.144;24.794;2023-07-08T15:19:48;3.90;;;2.63;;
5349;SDS011;2697;42.144;24.794;2023-07-08T15:22:13;3.17;;;2.87;;
5349;SDS011;2697;42.144;24.794;2023-07-08T15:24:39;4.90;;;2.80;;
5349;SDS011;2697;42.144;24.794;2023-07-08T15:27:04;2.67;;;2.40;;
5349;SDS011;2697;42.144;24.794;2023-07-08T15:29:30;3.40;;;2.50;;
5349;SDS011;2697;42.144;24.794;2023-07-08T15:31:58;6.37;;;2.97;;
5349;SDS011;2697;42.144;24.794;2023-07-08T15:34:23;6.20;;;2.70;;
5349;SDS011;2697;42.144;24.794;2023-07-08T15:36:49;3.43;;;2.10;;
5349;SDS011;2697;42.144;24.794;2023-07-08T15:39:15;1.80;;;1.70;;
5349;SDS011;2697;42.144;24.794;2023-07-08T15:41:41;3.33;;;2.40;;
5349;SDS011;2697;42.144;24.794;2023-07-08T15:44:08;7.90;;;2.17;;
5349;SDS011;2697;42.144;24.794;2023-07-08T15:46:37;6.13;;;2.53;;
5349;SDS011;2697;42.144;24.794;2023-07-08T15:49:13;3.17;;;2.77;;
5349;SDS011;2697;42.144;24.794;2023-07-08T15:51:40;2.83;;;2.10;;
5349;SDS011;2697;42.144;24.794;2023-07-08T15:54:06;7.30;;;2.80;;
5349;SDS011;2697;42.144;24.794;2023-07-08T15:56:32;3.07;;;2.17;;
5349;SDS011;2697;42.144;24.794;2023-07-08T15:58:57;7.37;;;2.77;;
5349;SDS011;2697;42.144;24.794;2023-07-08T16:01:23;2.73;;;2.00;;
5349;SDS011;2697;42.144;24.794;2023-07-08T16:03:49;4.53;;;2.23;;
5349;SDS011;2697;42.144;24.794;2023-07-08T16:06:15;3.23;;;2.03;;
5349;SDS011;2697;42.144;24.794;2023-07-08T16:08:41;2.90;;;2.23;;
5349;SDS011;2697;42.144;24.794;2023-07-08T16:11:11;3.37;;;2.60;;
5349;SDS011;2697;42.144;24.794;2023-07-08T16:13:41;3.30;;;2.27;;